To NAV CANADA Home Page Login to a new session Search on AWWS site Feedback and Comments Disclaimer Vers la page française équivalente Tips FAQ What's new on the site To the Forecasts and Observations / NOTAM section To "File a Flight Plan" website Publications and other links Update of the User's profile FIC Telephone Numbers My Weather Data Folder Route Weather Data Regional Weather Data Local Weather Data To the Forecasts and Observations / NOTAM section
Request Generated 05/25/2017 at 01:07:16 UTC . Weather information available at that time is displayed.

METAR/TAF

KANGIQSUJUAQ/KANGIQSUJUAQ (WAKEHAM BAY)/QC    

LWIS CYKG 250100Z AUTO 12010KT M04/M05 A2997=
LWIS CYKG 250000Z AUTO 12012KT M03/M05 A2996=
LWIS CYKG 242300Z AUTO 13012KT M03/M05 A2995=

*** REMARK        : Forecast period has ended; this was the last TAF issued
*** REMARQUE : La période de prévision est échue; ceci était le dernier TAF qui a été émis
TAF CYKG 241338Z 2414/2421 13010KT P6SM -SN BKN020 TEMPO 2414/2421
P6SM NSW SCT020
RMK NXT FCST WILL BE ISSUED AT 251345Z=
Your time UTC time
Weather data provided by Environment Canada and NAV CANADA